createdAt,value
2018-11-12T00:00:38.640Z,12.10
2018-11-12T00:03:06.303Z,12.00
2018-11-12T00:05:33.854Z,12.00
2018-11-12T00:08:01.497Z,12.00
2018-11-12T00:10:29.130Z,12.00
2018-11-12T00:12:56.740Z,12.10
2018-11-12T00:15:24.305Z,12.00
2018-11-12T00:17:51.857Z,12.00
2018-11-12T00:20:19.435Z,11.90
2018-11-12T00:22:47.285Z,11.90
2018-11-12T00:25:14.927Z,11.90
2018-11-12T00:27:42.787Z,11.90
2018-11-12T00:30:12.673Z,11.80
2018-11-12T00:32:40.498Z,11.80
2018-11-12T00:35:09.076Z,11.70
2018-11-12T00:37:36.698Z,11.80
2018-11-12T00:40:04.725Z,11.80
2018-11-12T00:42:32.279Z,11.90
2018-11-12T00:44:59.907Z,11.80
2018-11-12T00:47:27.497Z,11.80
2018-11-12T00:49:55.080Z,11.80
2018-11-12T00:52:22.689Z,11.90
2018-11-12T00:54:50.315Z,11.80
2018-11-12T00:57:17.918Z,11.80
2018-11-12T00:59:45.507Z,11.70
2018-11-12T01:02:13.036Z,11.70
2018-11-12T01:04:40.820Z,11.70
2018-11-12T01:07:08.385Z,11.60
2018-11-12T01:09:36.022Z,11.50
2018-11-12T01:12:03.682Z,11.60
2018-11-12T01:14:31.279Z,11.70
2018-11-12T01:17:05.664Z,11.70
2018-11-12T01:19:33.196Z,11.70
2018-11-12T01:22:00.784Z,11.80
2018-11-12T01:24:28.373Z,11.80
2018-11-12T01:26:55.872Z,11.80
2018-11-12T01:29:23.398Z,11.90
2018-11-12T01:31:50.970Z,11.90
2018-11-12T01:34:18.549Z,11.90
2018-11-12T01:36:46.109Z,11.80
2018-11-12T01:39:13.686Z,11.80
2018-11-12T01:41:44.991Z,11.80
2018-11-12T01:44:12.624Z,11.80
2018-11-12T01:46:40.243Z,11.90
2018-11-12T01:49:07.812Z,11.90
2018-11-12T01:51:35.672Z,11.90
2018-11-12T01:54:03.258Z,11.90
2018-11-12T01:56:30.871Z,11.90
2018-11-12T01:58:58.433Z,11.80
2018-11-12T02:01:26.042Z,11.90
2018-11-12T02:03:53.728Z,12.00
2018-11-12T02:06:21.341Z,12.00
2018-11-12T02:08:48.934Z,12.00
2018-11-12T02:11:16.532Z,11.90
2018-11-12T02:13:44.122Z,11.90
2018-11-12T02:16:11.685Z,11.90
2018-11-12T02:18:39.274Z,11.90
2018-11-12T02:21:07.349Z,11.90
2018-11-12T02:23:35.080Z,11.80
2018-11-12T02:26:02.806Z,11.70
2018-11-12T02:28:30.378Z,11.80
2018-11-12T02:30:57.951Z,11.70
2018-11-12T02:33:25.632Z,11.70
2018-11-12T02:35:53.191Z,11.80
2018-11-12T02:38:20.745Z,11.80
2018-11-12T02:40:48.340Z,11.80
2018-11-12T02:43:15.883Z,11.70
2018-11-12T02:45:43.417Z,11.70
2018-11-12T02:48:10.976Z,11.60
2018-11-12T02:50:38.578Z,11.60
2018-11-12T02:53:06.177Z,11.50
2018-11-12T02:55:33.742Z,11.50
2018-11-12T02:58:01.301Z,11.60
2018-11-12T03:00:28.916Z,11.50
2018-11-12T03:02:56.517Z,11.50
2018-11-12T03:05:24.028Z,11.50
2018-11-12T03:07:51.628Z,11.50
2018-11-12T03:10:21.293Z,11.50
2018-11-12T03:12:48.836Z,11.50
2018-11-12T03:15:17.210Z,11.60
2018-11-12T03:17:45.355Z,11.60
2018-11-12T03:20:14.048Z,11.60
2018-11-12T03:22:41.710Z,11.60
2018-11-12T03:25:11.114Z,11.50
2018-11-12T03:27:39.211Z,11.60
2018-11-12T03:30:08.659Z,11.60
2018-11-12T03:32:36.299Z,11.70
2018-11-12T03:35:04.252Z,11.60
2018-11-12T03:37:31.841Z,11.50
2018-11-12T03:39:59.410Z,11.50
2018-11-12T03:42:26.984Z,11.50
2018-11-12T03:44:54.589Z,11.50
2018-11-12T03:47:22.192Z,11.50
2018-11-12T03:49:49.741Z,11.50
2018-11-12T03:52:17.326Z,11.50
2018-11-12T03:54:44.934Z,11.60
2018-11-12T03:57:12.653Z,11.60
2018-11-12T03:59:40.262Z,11.60
2018-11-12T04:02:07.905Z,11.50
2018-11-12T04:04:35.542Z,11.50
2018-11-12T04:09:37.303Z,11.60
2018-11-12T04:12:04.882Z,11.50
2018-11-12T04:14:32.453Z,11.50
2018-11-12T04:17:00.013Z,11.60
2018-11-12T04:19:27.555Z,11.60
2018-11-12T04:21:55.108Z,11.60
2018-11-12T04:24:22.781Z,11.50
2018-11-12T04:26:50.365Z,11.50
2018-11-12T04:29:18.003Z,11.50
2018-11-12T04:31:45.541Z,11.40
2018-11-12T04:34:13.119Z,11.40
2018-11-12T04:36:40.667Z,11.30
2018-11-12T04:39:08.966Z,11.20
2018-11-12T04:41:36.526Z,11.20
2018-11-12T04:44:04.351Z,11.30
2018-11-12T04:46:31.971Z,11.40
2018-11-12T04:48:59.545Z,11.40
2018-11-12T04:51:27.208Z,11.40
2018-11-12T04:53:54.875Z,11.40
2018-11-12T04:56:22.415Z,11.40
2018-11-12T04:58:50.050Z,11.40
2018-11-12T05:01:17.656Z,11.40
2018-11-12T05:03:45.221Z,11.30
2018-11-12T05:06:12.929Z,11.30
2018-11-12T05:08:40.515Z,11.30
2018-11-12T05:11:08.190Z,11.30
2018-11-12T05:13:35.765Z,11.30
2018-11-12T05:16:03.423Z,11.20
2018-11-12T05:18:31.030Z,11.20
2018-11-12T05:20:58.603Z,11.00
2018-11-12T05:23:26.190Z,11.00
2018-11-12T05:25:53.783Z,11.00
2018-11-12T05:28:21.363Z,10.90
2018-11-12T05:30:48.956Z,10.90
2018-11-12T05:33:16.535Z,10.90
2018-11-12T05:35:50.716Z,11.00
2018-11-12T05:38:18.412Z,11.10
2018-11-12T05:40:45.920Z,11.10
2018-11-12T05:43:13.585Z,11.10
2018-11-12T05:45:41.209Z,11.10
2018-11-12T05:48:08.782Z,11.10
2018-11-12T05:50:36.336Z,11.10
2018-11-12T05:53:04.552Z,11.10
2018-11-12T05:55:32.959Z,11.10
2018-11-12T05:58:00.995Z,11.00
2018-11-12T06:00:32.800Z,11.10
2018-11-12T06:03:00.651Z,11.10
2018-11-12T06:05:28.316Z,11.10
2018-11-12T06:07:55.914Z,11.00
2018-11-12T06:10:24.959Z,11.00
2018-11-12T06:12:52.607Z,11.00
2018-11-12T06:15:20.217Z,11.00
2018-11-12T06:17:48.783Z,11.00
2018-11-12T06:20:19.373Z,10.90
2018-11-12T06:22:47.063Z,10.80
2018-11-12T06:25:16.178Z,10.90
2018-11-12T06:27:43.830Z,10.90
2018-11-12T06:30:14.672Z,10.90
2018-11-12T06:32:42.348Z,10.90
2018-11-12T06:35:11.198Z,10.90
2018-11-12T06:37:38.838Z,10.80
2018-11-12T06:40:08.479Z,10.80
2018-11-12T06:42:36.632Z,10.80
2018-11-12T06:45:05.225Z,10.90
2018-11-12T06:47:32.831Z,10.90
2018-11-12T06:50:00.386Z,10.90
2018-11-12T06:52:28.113Z,11.00
2018-11-12T06:54:55.728Z,11.00
2018-11-12T06:57:23.327Z,10.90
2018-11-12T06:59:50.988Z,10.80
2018-11-12T07:02:18.572Z,10.80
2018-11-12T07:04:46.171Z,10.90
2018-11-12T07:07:13.734Z,10.80
2018-11-12T07:09:41.356Z,10.80
2018-11-12T07:12:08.932Z,10.80
2018-11-12T07:14:36.605Z,10.80
2018-11-12T07:17:04.541Z,10.90
2018-11-12T07:19:32.244Z,10.80
2018-11-12T07:21:59.912Z,10.90
2018-11-12T07:24:27.568Z,10.90
2018-11-12T07:26:55.206Z,10.90
2018-11-12T07:29:23.004Z,10.90
2018-11-12T07:31:50.559Z,10.90
2018-11-12T07:34:18.117Z,10.90
2018-11-12T07:36:45.673Z,10.90
2018-11-12T07:39:13.323Z,10.80
2018-11-12T07:41:40.910Z,10.90
2018-11-12T07:44:08.509Z,10.90
2018-11-12T07:46:36.039Z,10.80
2018-11-12T07:49:03.657Z,10.90
2018-11-12T07:51:31.292Z,11.00
2018-11-12T07:53:58.861Z,11.00
2018-11-12T07:56:26.446Z,11.10
2018-11-12T07:58:54.033Z,11.20
2018-11-12T08:01:21.638Z,11.10
2018-11-12T08:03:49.279Z,11.10
2018-11-12T08:06:16.774Z,11.10
2018-11-12T08:08:44.355Z,11.10
2018-11-12T08:11:12.616Z,11.10
2018-11-12T08:13:40.194Z,11.10
2018-11-12T08:16:07.765Z,11.20
2018-11-12T08:18:35.314Z,11.20
2018-11-12T08:21:02.782Z,11.30
2018-11-12T08:23:30.281Z,11.20
2018-11-12T08:25:57.837Z,11.30
2018-11-12T08:28:25.342Z,11.20
2018-11-12T08:30:52.922Z,11.30
2018-11-12T08:33:20.475Z,11.30
2018-11-12T08:35:48.038Z,11.30
2018-11-12T08:38:15.672Z,11.00
2018-11-12T08:40:43.401Z,11.10
2018-11-12T08:43:10.892Z,11.20
2018-11-12T08:45:38.497Z,11.40
2018-11-12T08:48:06.131Z,11.40
2018-11-12T08:50:33.717Z,11.50
2018-11-12T08:53:01.307Z,11.50
2018-11-12T08:55:29.964Z,11.50
2018-11-12T08:57:59.316Z,11.50
2018-11-12T09:00:27.407Z,11.40
2018-11-12T09:02:55.055Z,11.20
2018-11-12T09:05:23.970Z,11.40
2018-11-12T09:07:55.219Z,11.40
2018-11-12T09:10:25.532Z,11.40
2018-11-12T09:12:53.186Z,11.40
2018-11-12T09:15:20.781Z,11.50
2018-11-12T09:17:48.952Z,11.50
2018-11-12T09:20:18.184Z,11.50
2018-11-12T09:22:45.843Z,11.70
2018-11-12T09:25:14.670Z,11.80
2018-11-12T09:27:42.465Z,11.80
2018-11-12T09:30:12.791Z,11.80
2018-11-12T09:32:41.182Z,11.80
2018-11-12T09:35:10.305Z,11.90
2018-11-12T09:37:37.876Z,11.90
2018-11-12T09:40:08.725Z,12.00
2018-11-12T09:42:36.319Z,12.10
2018-11-12T09:45:04.641Z,12.20
2018-11-12T09:47:32.301Z,12.30
2018-11-12T09:49:59.871Z,12.40
2018-11-12T09:52:27.437Z,12.40
2018-11-12T09:54:55.054Z,12.50
2018-11-12T09:57:22.605Z,12.30
2018-11-12T09:59:50.220Z,12.40
2018-11-12T10:02:18.463Z,12.50
2018-11-12T10:04:46.858Z,12.40
2018-11-12T10:07:14.765Z,12.30
2018-11-12T10:09:42.433Z,12.40
2018-11-12T10:12:10.382Z,12.30
2018-11-12T10:14:38.781Z,12.50
2018-11-12T10:17:05.907Z,12.50
2018-11-12T10:19:31.017Z,12.50
2018-11-12T10:21:58.587Z,12.60
2018-11-12T10:24:26.153Z,12.60
2018-11-12T10:26:53.717Z,12.60
2018-11-12T10:29:21.337Z,12.80
2018-11-12T10:31:48.879Z,12.80
2018-11-12T10:34:16.542Z,12.90
2018-11-12T10:36:44.084Z,12.90
2018-11-12T10:39:11.753Z,12.90
2018-11-12T10:41:39.359Z,13.00
2018-11-12T10:44:06.954Z,13.00
2018-11-12T10:46:34.567Z,13.20
2018-11-12T10:49:02.169Z,13.30
2018-11-12T10:51:29.827Z,13.40
2018-11-12T10:53:57.602Z,13.70
2018-11-12T10:56:25.009Z,13.90
2018-11-12T10:58:52.620Z,13.90
2018-11-12T11:01:25.724Z,14.00
2018-11-12T11:03:57.895Z,14.20
2018-11-12T11:06:25.790Z,14.00
2018-11-12T11:08:53.441Z,14.10
2018-11-12T11:11:21.000Z,14.20
2018-11-12T11:13:48.660Z,14.40
2018-11-12T11:16:16.272Z,14.50
2018-11-12T11:18:43.960Z,14.40
2018-11-12T11:21:12.174Z,14.40
2018-11-12T11:23:39.846Z,14.60
2018-11-12T11:26:07.477Z,14.60
2018-11-12T11:28:35.110Z,14.60
2018-11-12T11:31:02.793Z,14.40
2018-11-12T11:33:30.366Z,14.40
2018-11-12T11:35:57.995Z,14.80
2018-11-12T11:38:25.642Z,14.80
2018-11-12T11:40:53.298Z,14.80
2018-11-12T11:43:20.848Z,14.80
2018-11-12T11:45:48.436Z,14.80
2018-11-12T11:48:16.158Z,14.90
2018-11-12T11:50:43.734Z,14.80
2018-11-12T11:53:11.272Z,14.60
2018-11-12T11:55:38.886Z,14.50
2018-11-12T11:58:06.516Z,14.40
2018-11-12T12:00:34.180Z,14.30
2018-11-12T12:03:01.765Z,14.30
2018-11-12T12:05:29.389Z,14.40
2018-11-12T12:07:57.430Z,14.60
2018-11-12T12:10:25.163Z,14.60
2018-11-12T12:12:53.192Z,14.70
2018-11-12T12:15:21.690Z,15.00
2018-11-12T12:17:49.392Z,15.10
2018-11-12T12:20:19.259Z,15.10
2018-11-12T12:22:46.845Z,15.20
2018-11-12T12:25:15.458Z,15.00
2018-11-12T12:27:43.789Z,14.90
2018-11-12T12:30:15.135Z,14.90
2018-11-12T12:32:43.621Z,14.90
2018-11-12T12:35:11.797Z,14.90
2018-11-12T12:37:39.875Z,14.80
2018-11-12T12:40:09.123Z,14.90
2018-11-12T12:42:36.886Z,14.90
2018-11-12T12:45:05.196Z,15.00
2018-11-12T12:47:32.624Z,15.10
2018-11-12T12:50:00.311Z,15.40
2018-11-12T12:52:27.929Z,15.60
2018-11-12T12:54:55.514Z,16.00
2018-11-12T12:57:23.121Z,16.50
2018-11-12T12:59:50.798Z,16.40
2018-11-12T13:02:18.499Z,16.50
2018-11-12T13:04:46.171Z,16.50
2018-11-12T13:07:13.818Z,16.40
2018-11-12T13:09:41.446Z,16.20
2018-11-12T13:12:09.040Z,16.20
2018-11-12T13:14:36.749Z,16.00
2018-11-12T13:17:04.546Z,15.80
2018-11-12T13:19:32.158Z,15.90
2018-11-12T13:21:59.750Z,16.10
2018-11-12T13:24:27.660Z,16.70
2018-11-12T13:26:55.267Z,17.50
2018-11-12T13:29:22.837Z,18.10
2018-11-12T13:31:50.430Z,18.60
2018-11-12T13:34:18.023Z,19.30
2018-11-12T13:36:45.679Z,19.30
2018-11-12T13:39:13.423Z,18.50
2018-11-12T13:41:41.613Z,17.60
2018-11-12T13:44:09.336Z,17.20
2018-11-12T13:46:42.476Z,16.70
2018-11-12T13:49:10.054Z,16.50
2018-11-12T13:51:37.649Z,16.60
2018-11-12T13:54:05.855Z,17.30
2018-11-12T13:56:33.423Z,17.50
2018-11-12T13:59:00.975Z,17.70
2018-11-12T14:01:28.775Z,17.80
2018-11-12T14:03:56.374Z,17.50
2018-11-12T14:06:24.000Z,17.60
2018-11-12T14:08:51.541Z,17.80
2018-11-12T14:11:19.115Z,17.80
2018-11-12T14:13:46.757Z,17.50
2018-11-12T14:16:14.254Z,17.10
2018-11-12T14:18:41.815Z,16.90
2018-11-12T14:21:09.556Z,16.70
2018-11-12T14:23:37.046Z,16.60
2018-11-12T14:26:04.694Z,16.30
2018-11-12T14:28:32.407Z,16.20
2018-11-12T14:30:59.831Z,16.20
2018-11-12T14:33:27.435Z,16.00
2018-11-12T14:35:55.044Z,16.00
2018-11-12T14:38:22.765Z,15.90
2018-11-12T14:40:50.334Z,15.90
2018-11-12T14:43:17.935Z,15.90
2018-11-12T14:45:45.572Z,15.80
2018-11-12T14:48:13.171Z,15.80
2018-11-12T14:50:40.776Z,15.80
2018-11-12T14:53:08.320Z,15.80
2018-11-12T14:55:35.886Z,15.70
2018-11-12T14:58:03.458Z,15.60
2018-11-12T15:00:31.099Z,15.50
2018-11-12T15:02:58.700Z,15.40
2018-11-12T15:05:26.291Z,15.30
2018-11-12T15:07:53.881Z,15.20
2018-11-12T15:10:21.672Z,15.20
2018-11-12T15:12:49.634Z,15.10
2018-11-12T15:15:17.213Z,15.10
2018-11-12T15:17:44.949Z,15.00
2018-11-12T15:20:16.259Z,14.90
2018-11-12T15:22:44.045Z,14.90
2018-11-12T15:25:14.117Z,14.80
2018-11-12T15:27:42.032Z,14.80
2018-11-12T15:30:13.251Z,14.60
2018-11-12T15:32:41.373Z,14.60
2018-11-12T15:35:09.956Z,14.60
2018-11-12T15:37:37.721Z,14.40
2018-11-12T15:40:06.408Z,14.40
2018-11-12T15:42:33.960Z,14.40
2018-11-12T15:45:01.537Z,14.40
2018-11-12T15:47:29.166Z,14.40
2018-11-12T15:49:56.818Z,14.30
2018-11-12T15:54:58.688Z,14.10
2018-11-12T15:57:26.438Z,14.00
2018-11-12T15:59:54.358Z,14.00
2018-11-12T16:02:22.014Z,14.00
2018-11-12T16:04:49.805Z,14.00
2018-11-12T16:07:17.411Z,13.90
2018-11-12T16:09:45.024Z,13.80
2018-11-12T16:12:12.645Z,13.60
2018-11-12T16:14:40.227Z,13.60
2018-11-12T16:17:07.929Z,13.60
2018-11-12T16:19:35.595Z,13.50
2018-11-12T16:22:03.268Z,13.60
2018-11-12T16:24:30.880Z,13.50
2018-11-12T16:26:58.483Z,13.50
2018-11-12T16:29:26.109Z,13.40
2018-11-12T16:31:53.807Z,13.50
2018-11-12T16:34:21.489Z,13.40
2018-11-12T16:36:49.124Z,13.40
2018-11-12T16:39:16.699Z,13.40
2018-11-12T16:41:44.358Z,13.40
2018-11-12T16:44:13.004Z,13.30
2018-11-12T16:46:40.564Z,13.20
2018-11-12T16:49:08.188Z,13.20
2018-11-12T16:51:35.796Z,13.10
2018-11-12T16:54:03.496Z,13.10
2018-11-12T16:56:31.148Z,13.10
2018-11-12T16:58:58.773Z,13.00
2018-11-12T17:01:26.464Z,13.00
2018-11-12T17:03:54.073Z,13.10
2018-11-12T17:06:21.704Z,13.00
2018-11-12T17:08:49.296Z,12.90
2018-11-12T17:11:16.928Z,12.90
2018-11-12T17:13:44.492Z,12.90
2018-11-12T17:16:12.948Z,12.90
2018-11-12T17:18:40.501Z,12.90
2018-11-12T17:21:08.140Z,12.80
2018-11-12T17:23:35.767Z,12.80
2018-11-12T17:26:03.487Z,12.80
2018-11-12T17:28:31.066Z,12.70
2018-11-12T17:30:58.772Z,12.70
2018-11-12T17:33:26.343Z,12.70
2018-11-12T17:35:53.946Z,12.70
2018-11-12T17:38:21.548Z,12.70
2018-11-12T17:40:49.149Z,12.70
2018-11-12T17:43:16.875Z,12.70
2018-11-12T17:45:44.351Z,12.60
2018-11-12T17:48:11.982Z,12.60
2018-11-12T17:50:39.634Z,12.60
2018-11-12T17:53:07.333Z,12.70
2018-11-12T17:55:34.980Z,12.60
2018-11-12T17:58:02.606Z,12.60
2018-11-12T18:00:32.705Z,12.50
2018-11-12T18:03:00.427Z,12.50
2018-11-12T18:05:28.190Z,12.50
2018-11-12T18:07:55.884Z,12.50
2018-11-12T18:10:23.588Z,12.40
2018-11-12T18:12:51.304Z,12.40
2018-11-12T18:15:20.070Z,12.30
2018-11-12T18:17:48.238Z,12.20
2018-11-12T18:20:18.401Z,12.20
2018-11-12T18:22:46.195Z,12.20
2018-11-12T18:25:14.216Z,12.20
2018-11-12T18:27:41.891Z,12.20
2018-11-12T18:30:13.371Z,12.30
2018-11-12T18:32:41.250Z,12.20
2018-11-12T18:35:09.011Z,12.20
2018-11-12T18:37:37.245Z,12.20
2018-11-12T18:40:06.552Z,12.10
2018-11-12T18:42:34.274Z,12.00
2018-11-12T18:45:01.979Z,11.90
2018-11-12T18:47:29.678Z,11.90
2018-11-12T18:49:57.406Z,11.90
2018-11-12T18:52:25.078Z,11.90
2018-11-12T18:54:52.758Z,11.90
2018-11-12T18:57:20.371Z,11.80
2018-11-12T18:59:48.056Z,11.80
2018-11-12T19:02:15.694Z,11.80
2018-11-12T19:04:43.331Z,11.70
2018-11-12T19:07:11.082Z,11.70
2018-11-12T19:09:38.843Z,11.70
2018-11-12T19:12:06.635Z,11.70
2018-11-12T19:14:34.650Z,11.70
2018-11-12T19:17:02.376Z,11.60
2018-11-12T19:19:30.071Z,11.60
2018-11-12T19:21:57.727Z,11.50
2018-11-12T19:24:25.426Z,11.50
2018-11-12T19:26:53.061Z,11.50
2018-11-12T19:29:20.764Z,11.50
2018-11-12T19:31:48.417Z,11.40
2018-11-12T19:34:16.072Z,11.40
2018-11-12T19:36:43.731Z,11.40
2018-11-12T19:39:11.475Z,11.40
2018-11-12T19:41:39.336Z,11.40
2018-11-12T19:44:07.178Z,11.30
2018-11-12T19:46:35.074Z,11.30
2018-11-12T19:49:02.859Z,11.30
2018-11-12T19:51:31.106Z,11.30
2018-11-12T19:53:58.620Z,11.20
2018-11-12T19:56:26.298Z,11.20
2018-11-12T19:58:54.012Z,11.20
2018-11-12T20:01:21.771Z,11.10
2018-11-12T20:03:49.495Z,11.10
2018-11-12T20:06:17.237Z,11.10
2018-11-12T20:08:44.923Z,11.10
2018-11-12T20:11:12.705Z,11.10
2018-11-12T20:13:40.461Z,11.10
2018-11-12T20:16:08.268Z,11.10
2018-11-12T20:18:36.033Z,11.10
2018-11-12T20:21:03.994Z,11.10
2018-11-12T20:23:31.656Z,11.10
2018-11-12T20:25:59.455Z,11.10
2018-11-12T20:28:27.289Z,11.20
2018-11-12T20:30:55.118Z,11.10
2018-11-12T20:33:22.797Z,11.10
2018-11-12T20:35:50.518Z,11.10
2018-11-12T20:38:18.237Z,11.00
2018-11-12T20:40:45.970Z,11.00
2018-11-12T20:43:13.746Z,11.10
2018-11-12T20:45:41.462Z,11.20
2018-11-12T20:48:09.277Z,11.20
2018-11-12T20:50:36.884Z,11.10
2018-11-12T20:53:05.239Z,11.20
2018-11-12T20:55:32.958Z,11.10
2018-11-12T20:58:00.998Z,11.20
2018-11-12T21:00:29.126Z,11.20
2018-11-12T21:02:57.051Z,11.20
2018-11-12T21:05:27.046Z,11.30
2018-11-12T21:07:54.647Z,11.30
2018-11-12T21:10:22.296Z,11.20
2018-11-12T21:12:50.563Z,11.30
2018-11-12T21:15:19.064Z,11.30
2018-11-12T21:17:46.719Z,11.30
2018-11-12T21:20:17.639Z,11.30
2018-11-12T21:22:45.444Z,11.30
2018-11-12T21:25:14.404Z,11.30
2018-11-12T21:27:42.015Z,11.30
2018-11-12T21:30:12.745Z,11.30
2018-11-12T21:32:40.465Z,11.20
2018-11-12T21:35:08.479Z,11.30
2018-11-12T21:37:36.108Z,11.20
2018-11-12T21:40:04.994Z,11.20
2018-11-12T21:42:32.666Z,11.20
2018-11-12T21:45:00.325Z,11.30
2018-11-12T21:47:27.970Z,11.30
2018-11-12T21:49:55.645Z,11.20
2018-11-12T21:52:23.269Z,11.10
2018-11-12T21:54:50.865Z,11.10
2018-11-12T21:57:18.428Z,11.10
2018-11-12T21:59:46.055Z,11.20
2018-11-12T22:02:13.748Z,11.10
2018-11-12T22:04:41.467Z,11.10
2018-11-12T22:07:09.063Z,11.20
2018-11-12T22:09:36.710Z,11.20
2018-11-12T22:12:04.874Z,11.10
2018-11-12T22:14:32.460Z,11.20
2018-11-12T22:17:00.051Z,11.10
2018-11-12T22:19:27.747Z,11.20
2018-11-12T22:21:55.345Z,11.10
2018-11-12T22:24:22.980Z,11.20
2018-11-12T22:26:50.565Z,11.10
2018-11-12T22:29:18.180Z,11.20
2018-11-12T22:31:45.775Z,11.20
2018-11-12T22:34:13.349Z,11.10
2018-11-12T22:36:41.038Z,11.20
2018-11-12T22:39:09.642Z,11.20
2018-11-12T22:41:37.223Z,11.10
2018-11-12T22:44:04.888Z,11.10
2018-11-12T22:46:32.461Z,11.20
2018-11-12T22:49:00.081Z,11.20
2018-11-12T22:51:27.670Z,11.10
2018-11-12T22:53:55.351Z,11.10
2018-11-12T22:56:22.870Z,11.10
2018-11-12T22:58:50.510Z,11.00
2018-11-12T23:01:18.179Z,11.10
2018-11-12T23:03:45.795Z,11.10
2018-11-12T23:06:13.423Z,11.00
2018-11-12T23:08:41.815Z,11.00
2018-11-12T23:11:09.360Z,10.90
2018-11-12T23:13:37.131Z,10.90
2018-11-12T23:16:04.759Z,10.90
2018-11-12T23:18:32.407Z,10.90
2018-11-12T23:21:00.008Z,11.00
2018-11-12T23:23:27.617Z,11.00
2018-11-12T23:25:55.177Z,11.00
2018-11-12T23:28:22.712Z,11.00
2018-11-12T23:30:50.301Z,11.00
2018-11-12T23:33:17.822Z,11.10
2018-11-12T23:35:45.410Z,11.10
2018-11-12T23:38:13.023Z,11.20
2018-11-12T23:40:40.657Z,11.20
2018-11-12T23:43:08.214Z,11.10
2018-11-12T23:45:35.777Z,11.10
2018-11-12T23:48:03.334Z,11.10
2018-11-12T23:50:30.916Z,11.10
2018-11-12T23:52:58.521Z,11.00
2018-11-12T23:55:26.077Z,11.00
2018-11-12T23:57:53.642Z,11.10
